sensor_id;sensor_type;location;lat;lon;timestamp;pressure;altitude;pressure_sealevel;temperature;humidity
69751;BME280;57335;52.288;6.056;2023-07-31T00:00:57;100914.88;;;15.32;100.00
69751;BME280;57335;52.288;6.056;2023-07-31T00:03:24;100918.09;;;15.34;100.00
69751;BME280;57335;52.288;6.056;2023-07-31T00:05:50;100924.50;;;15.38;100.00
69751;BME280;57335;52.288;6.056;2023-07-31T00:08:17;100916.56;;;15.38;100.00
69751;BME280;57335;52.288;6.056;2023-07-31T00:10:43;100913.94;;;15.38;100.00
69751;BME280;57335;52.288;6.056;2023-07-31T00:13:09;100906.00;;;15.38;100.00
69751;BME280;57335;52.288;6.056;2023-07-31T00:15:37;100899.94;;;15.38;100.00
69751;BME280;57335;52.288;6.056;2023-07-31T00:18:03;100887.97;;;15.35;100.00
69751;BME280;57335;52.288;6.056;2023-07-31T00:20:30;100897.88;;;15.40;100.00
69751;BME280;57335;52.288;6.056;2023-07-31T00:22:56;100883.28;;;15.37;100.00
69751;BME280;57335;52.288;6.056;2023-07-31T00:25:22;100889.44;;;15.43;100.00
69751;BME280;57335;52.288;6.056;2023-07-31T00:27:49;100890.50;;;15.42;100.00
69751;BME280;57335;52.288;6.056;2023-07-31T00:30:15;100882.03;;;15.40;100.00
69751;BME280;57335;52.288;6.056;2023-07-31T00:32:42;100882.03;;;15.40;100.00
69751;BME280;57335;52.288;6.056;2023-07-31T00:35:08;100869.50;;;15.35;100.00
69751;BME280;57335;52.288;6.056;2023-07-31T00:37:34;100867.19;;;15.39;100.00
69751;BME280;57335;52.288;6.056;2023-07-31T00:40:01;100877.75;;;15.39;100.00
69751;BME280;57335;52.288;6.056;2023-07-31T00:42:27;100875.59;;;15.35;100.00
69751;BME280;57335;52.288;6.056;2023-07-31T00:44:54;100874.56;;;15.36;100.00
69751;BME280;57335;52.288;6.056;2023-07-31T00:47:20;100877.53;;;15.40;100.00
69751;BME280;57335;52.288;6.056;2023-07-31T00:49:47;100866.06;;;15.34;100.00
69751;BME280;57335;52.288;6.056;2023-07-31T00:52:14;100874.66;;;15.42;100.00
69751;BME280;57335;52.288;6.056;2023-07-31T00:54:40;100871.19;;;15.41;100.00
69751;BME280;57335;52.288;6.056;2023-07-31T00:57:07;100864.56;;;15.39;100.00
69751;BME280;57335;52.288;6.056;2023-07-31T00:59:34;100863.53;;;15.40;100.00
69751;BME280;57335;52.288;6.056;2023-07-31T01:02:00;100867.19;;;15.39;100.00
69751;BME280;57335;52.288;6.056;2023-07-31T01:04:27;100863.28;;;15.41;100.00
69751;BME280;57335;52.288;6.056;2023-07-31T01:10:18;100862.56;;;15.46;100.00
69751;BME280;57335;52.288;6.056;2023-07-31T01:12:48;100856.47;;;15.45;100.00
69751;BME280;57335;52.288;6.056;2023-07-31T01:15:16;100852.47;;;15.43;100.00
69751;BME280;57335;52.288;6.056;2023-07-31T01:17:43;100852.47;;;15.43;100.00
69751;BME280;57335;52.288;6.056;2023-07-31T01:20:22;100848.88;;;15.49;100.00
69751;BME280;57335;52.288;6.056;2023-07-31T01:31:07;100835.13;;;15.47;100.00
69751;BME280;57335;52.288;6.056;2023-07-31T01:33:36;100845.28;;;15.55;100.00
69751;BME280;57335;52.288;6.056;2023-07-31T01:36:04;100837.38;;;15.55;100.00
69751;BME280;57335;52.288;6.056;2023-07-31T01:38:30;100835.78;;;15.54;100.00
69751;BME280;57335;52.288;6.056;2023-07-31T01:40:56;100830.50;;;15.54;100.00
69751;BME280;57335;52.288;6.056;2023-07-31T01:43:23;100824.66;;;15.52;100.00
69751;BME280;57335;52.288;6.056;2023-07-31T01:45:49;100836.97;;;15.63;100.00
69751;BME280;57335;52.288;6.056;2023-07-31T01:48:16;100826.41;;;15.63;100.00
69751;BME280;57335;52.288;6.056;2023-07-31T01:50:42;100815.03;;;15.63;100.00
69751;BME280;57335;52.288;6.056;2023-07-31T01:53:08;100813.19;;;15.63;100.00
69751;BME280;57335;52.288;6.056;2023-07-31T01:55:35;100816.16;;;15.67;100.00
69751;BME280;57335;52.288;6.056;2023-07-31T01:58:01;100810.41;;;15.70;100.00
69751;BME280;57335;52.288;6.056;2023-07-31T02:00:27;100800.63;;;15.70;100.00
69751;BME280;57335;52.288;6.056;2023-07-31T02:02:54;100802.00;;;15.73;100.00
69751;BME280;57335;52.288;6.056;2023-07-31T02:05:20;100786.38;;;15.71;100.00
69751;BME280;57335;52.288;6.056;2023-07-31T02:07:47;100795.75;;;15.79;100.00
69751;BME280;57335;52.288;6.056;2023-07-31T02:10:13;100787.28;;;15.77;100.00
69751;BME280;57335;52.288;6.056;2023-07-31T02:12:40;100791.59;;;15.83;100.00
69751;BME280;57335;52.288;6.056;2023-07-31T02:15:06;100789.28;;;15.87;100.00
69751;BME280;57335;52.288;6.056;2023-07-31T02:17:33;100794.31;;;15.88;100.00
69751;BME280;57335;52.288;6.056;2023-07-31T02:20:00;100793.03;;;15.91;100.00
69751;BME280;57335;52.288;6.056;2023-07-31T02:22:26;100783.50;;;15.90;100.00
69751;BME280;57335;52.288;6.056;2023-07-31T02:24:53;100785.19;;;15.96;100.00
69751;BME280;57335;52.288;6.056;2023-07-31T02:27:19;100777.50;;;15.94;100.00
69751;BME280;57335;52.288;6.056;2023-07-31T02:29:46;100775.50;;;16.02;100.00
69751;BME280;57335;52.288;6.056;2023-07-31T02:32:12;100770.44;;;16.00;100.00
69751;BME280;57335;52.288;6.056;2023-07-31T02:34:39;100769.38;;;16.01;100.00
69751;BME280;57335;52.288;6.056;2023-07-31T02:37:06;100770.75;;;16.04;100.00
69751;BME280;57335;52.288;6.056;2023-07-31T02:39:32;100776.91;;;16.09;100.00
69751;BME280;57335;52.288;6.056;2023-07-31T02:41:59;100763.63;;;16.04;100.00
69751;BME280;57335;52.288;6.056;2023-07-31T02:44:26;100772.97;;;16.12;100.00
69751;BME280;57335;52.288;6.056;2023-07-31T02:46:52;100772.16;;;16.11;100.00
69751;BME280;57335;52.288;6.056;2023-07-31T02:49:19;100774.31;;;16.14;100.00
69751;BME280;57335;52.288;6.056;2023-07-31T02:51:45;100778.56;;;16.15;100.00
69751;BME280;57335;52.288;6.056;2023-07-31T02:54:11;100762.66;;;16.10;100.00
69751;BME280;57335;52.288;6.056;2023-07-31T02:56:38;100774.31;;;16.14;100.00
69751;BME280;57335;52.288;6.056;2023-07-31T02:59:05;100764.53;;;16.15;100.00
69751;BME280;57335;52.288;6.056;2023-07-31T03:01:31;100765.84;;;16.12;100.00
69751;BME280;57335;52.288;6.056;2023-07-31T03:03:57;100777.06;;;16.20;100.00
69751;BME280;57335;52.288;6.056;2023-07-31T03:06:24;100764.31;;;16.17;100.00
69751;BME280;57335;52.288;6.056;2023-07-31T03:08:50;100772.56;;;16.20;100.00
69751;BME280;57335;52.288;6.056;2023-07-31T03:11:17;100765.41;;;16.21;100.00
69751;BME280;57335;52.288;6.056;2023-07-31T03:13:43;100762.78;;;16.21;100.00
69751;BME280;57335;52.288;6.056;2023-07-31T03:16:09;100765.22;;;16.27;100.00
69751;BME280;57335;52.288;6.056;2023-07-31T03:18:36;100762.91;;;16.31;100.00
69751;BME280;57335;52.288;6.056;2023-07-31T03:21:02;100753.84;;;16.27;100.00
69751;BME280;57335;52.288;6.056;2023-07-31T03:23:29;100756.50;;;16.27;100.00
69751;BME280;57335;52.288;6.056;2023-07-31T03:26:06;100755.47;;;16.28;100.00
69751;BME280;57335;52.288;6.056;2023-07-31T03:28:33;100756.81;;;16.30;100.00
69751;BME280;57335;52.288;6.056;2023-07-31T03:30:59;100768.25;;;16.36;100.00
69751;BME280;57335;52.288;6.056;2023-07-31T03:33:26;100766.09;;;16.33;100.00
69751;BME280;57335;52.288;6.056;2023-07-31T03:35:52;100760.59;;;16.40;100.00
69751;BME280;57335;52.288;6.056;2023-07-31T03:38:19;100748.13;;;16.35;100.00
69751;BME280;57335;52.288;6.056;2023-07-31T03:40:45;100756.16;;;16.40;100.00
69751;BME280;57335;52.288;6.056;2023-07-31T03:43:12;100742.91;;;16.40;100.00
69751;BME280;57335;52.288;6.056;2023-07-31T03:45:38;100759.88;;;16.44;100.00
69751;BME280;57335;52.288;6.056;2023-07-31T03:48:05;100746.13;;;16.42;100.00
69751;BME280;57335;52.288;6.056;2023-07-31T03:50:31;100755.16;;;16.46;100.00
69751;BME280;57335;52.288;6.056;2023-07-31T03:52:58;100750.91;;;16.45;100.00
69751;BME280;57335;52.288;6.056;2023-07-31T03:55:24;100755.16;;;16.46;100.00
69751;BME280;57335;52.288;6.056;2023-07-31T03:57:50;100750.91;;;16.45;100.00
69751;BME280;57335;52.288;6.056;2023-07-31T04:00:17;100744.50;;;16.41;100.00
69751;BME280;57335;52.288;6.056;2023-07-31T04:02:43;100747.16;;;16.41;100.00
69751;BME280;57335;52.288;6.056;2023-07-31T04:05:10;100760.19;;;16.48;100.00
69751;BME280;57335;52.288;6.056;2023-07-31T04:07:36;100757.81;;;16.46;100.00
69751;BME280;57335;52.288;6.056;2023-07-31T04:10:03;100752.19;;;16.43;100.00
69751;BME280;57335;52.288;6.056;2023-07-31T04:12:30;100755.16;;;16.46;100.00
69751;BME280;57335;52.288;6.056;2023-07-31T04:14:56;100748.00;;;16.47;100.00
69751;BME280;57335;52.288;6.056;2023-07-31T04:17:22;100749.06;;;16.46;100.00
69751;BME280;57335;52.288;6.056;2023-07-31T04:19:49;100739.53;;;16.45;100.00
69751;BME280;57335;52.288;6.056;2023-07-31T04:22:15;100735.47;;;16.37;100.00
69751;BME280;57335;52.288;6.056;2023-07-31T04:24:42;100730.72;;;16.39;100.00
69751;BME280;57335;52.288;6.056;2023-07-31T04:27:08;100745.06;;;16.43;100.00
69751;BME280;57335;52.288;6.056;2023-07-31T04:29:35;100734.16;;;16.40;100.00
69751;BME280;57335;52.288;6.056;2023-07-31T04:32:01;100747.16;;;16.41;100.00
69751;BME280;57335;52.288;6.056;2023-07-31T04:34:27;100740.81;;;16.42;100.00
69751;BME280;57335;52.288;6.056;2023-07-31T04:36:54;100728.59;;;16.36;100.00
69751;BME280;57335;52.288;6.056;2023-07-31T04:39:20;100729.19;;;16.43;100.00
69751;BME280;57335;52.288;6.056;2023-07-31T04:41:46;100718.56;;;16.38;100.00
69751;BME280;57335;52.288;6.056;2023-07-31T04:44:13;100722.53;;;16.41;100.00
69751;BME280;57335;52.288;6.056;2023-07-31T04:46:40;100709.81;;;16.38;100.00
69751;BME280;57335;52.288;6.056;2023-07-31T04:49:07;100708.47;;;16.35;100.00
69751;BME280;57335;52.288;6.056;2023-07-31T04:51:33;100705.81;;;16.35;100.00
69751;BME280;57335;52.288;6.056;2023-07-31T04:53:59;100703.41;;;16.33;100.00
69751;BME280;57335;52.288;6.056;2023-07-31T04:56:26;100711.19;;;16.40;100.00
69751;BME280;57335;52.288;6.056;2023-07-31T04:58:52;100710.63;;;16.38;100.00
69751;BME280;57335;52.288;6.056;2023-07-31T05:01:18;100711.09;;;16.35;100.00
69751;BME280;57335;52.288;6.056;2023-07-31T05:03:45;100707.91;;;16.33;100.00
69751;BME280;57335;52.288;6.056;2023-07-31T05:06:11;100719.13;;;16.40;100.00
69751;BME280;57335;52.288;6.056;2023-07-31T05:08:38;100708.78;;;16.39;100.00
69751;BME280;57335;52.288;6.056;2023-07-31T05:11:04;100724.44;;;16.45;100.00
69751;BME280;57335;52.288;6.056;2023-07-31T05:13:31;100725.00;;;16.47;100.00
69751;BME280;57335;52.288;6.056;2023-07-31T05:15:57;100724.50;;;16.50;100.00
69751;BME280;57335;52.288;6.056;2023-07-31T05:18:28;100708.09;;;16.48;100.00
69751;BME280;57335;52.288;6.056;2023-07-31T05:20:54;100712.16;;;16.56;100.00
69751;BME280;57335;52.288;6.056;2023-07-31T05:23:21;100703.69;;;16.59;100.00
69751;BME280;57335;52.288;6.056;2023-07-31T05:25:47;100703.94;;;16.58;100.00
69751;BME280;57335;52.288;6.056;2023-07-31T05:28:13;100695.22;;;16.57;100.00
69751;BME280;57335;52.288;6.056;2023-07-31T05:30:40;100708.25;;;16.64;100.00
69751;BME280;57335;52.288;6.056;2023-07-31T05:33:06;100706.66;;;16.63;100.00
69751;BME280;57335;52.288;6.056;2023-07-31T05:35:33;100686.78;;;16.60;100.00
69751;BME280;57335;52.288;6.056;2023-07-31T05:37:59;100702.69;;;16.65;100.00
69751;BME280;57335;52.288;6.056;2023-07-31T05:40:25;100706.66;;;16.63;100.00
69751;BME280;57335;52.288;6.056;2023-07-31T05:42:52;100702.91;;;16.59;100.00
69751;BME280;57335;52.288;6.056;2023-07-31T05:45:18;100693.34;;;16.58;100.00
69751;BME280;57335;52.288;6.056;2023-07-31T05:47:44;100702.34;;;16.57;100.00
69751;BME280;57335;52.288;6.056;2023-07-31T05:50:11;100694.66;;;16.55;100.00
69751;BME280;57335;52.288;6.056;2023-07-31T05:52:37;100699.16;;;16.54;100.00
69751;BME280;57335;52.288;6.056;2023-07-31T05:55:04;100691.69;;;16.51;100.00
69751;BME280;57335;52.288;6.056;2023-07-31T05:57:30;100695.41;;;16.50;100.00
69751;BME280;57335;52.288;6.056;2023-07-31T05:59:57;100682.66;;;16.47;100.00
69751;BME280;57335;52.288;6.056;2023-07-31T06:02:23;100676.28;;;16.43;100.00
69751;BME280;57335;52.288;6.056;2023-07-31T06:04:50;100681.88;;;16.47;100.00
69751;BME280;57335;52.288;6.056;2023-07-31T06:07:16;100663.56;;;16.40;100.00
69751;BME280;57335;52.288;6.056;2023-07-31T06:09:43;100674.69;;;16.42;100.00
69751;BME280;57335;52.288;6.056;2023-07-31T06:12:09;100672.06;;;16.42;100.00
69751;BME280;57335;52.288;6.056;2023-07-31T06:14:36;100659.81;;;16.36;100.00
69751;BME280;57335;52.288;6.056;2023-07-31T06:17:02;100651.81;;;16.31;100.00
69751;BME280;57335;52.288;6.056;2023-07-31T06:19:28;100657.41;;;16.34;100.00
69751;BME280;57335;52.288;6.056;2023-07-31T06:21:55;100657.34;;;16.29;100.00
69751;BME280;57335;52.288;6.056;2023-07-31T06:24:21;100653.91;;;16.29;100.00
69751;BME280;57335;52.288;6.056;2023-07-31T06:26:48;100648.88;;;16.27;100.00
69751;BME280;57335;52.288;6.056;2023-07-31T06:29:14;100648.63;;;16.29;100.00
69751;BME280;57335;52.288;6.056;2023-07-31T06:31:40;100658.22;;;16.35;100.00
69751;BME280;57335;52.288;6.056;2023-07-31T06:34:07;100649.72;;;16.33;100.00
69751;BME280;57335;52.288;6.056;2023-07-31T06:36:34;100652.75;;;16.42;100.00
69751;BME280;57335;52.288;6.056;2023-07-31T06:39:00;100646.94;;;16.45;100.00
69751;BME280;57335;52.288;6.056;2023-07-31T06:41:26;100651.47;;;16.49;100.00
69751;BME280;57335;52.288;6.056;2023-07-31T06:43:53;100636.69;;;16.53;100.00
69751;BME280;57335;52.288;6.056;2023-07-31T06:46:19;100637.84;;;16.63;100.00
69751;BME280;57335;52.288;6.056;2023-07-31T06:48:46;100633.66;;;16.67;100.00
69751;BME280;57335;52.288;6.056;2023-07-31T06:51:12;100623.31;;;16.65;100.00
69751;BME280;57335;52.288;6.056;2023-07-31T06:53:38;100627.31;;;16.68;100.00
69751;BME280;57335;52.288;6.056;2023-07-31T06:56:05;100639.56;;;16.79;100.00
69751;BME280;57335;52.288;6.056;2023-07-31T06:58:31;100628.81;;;16.86;100.00
69751;BME280;57335;52.288;6.056;2023-07-31T07:00:57;100617.19;;;16.87;100.00
69751;BME280;57335;52.288;6.056;2023-07-31T07:03:24;100625.44;;;16.95;100.00
69751;BME280;57335;52.288;6.056;2023-07-31T07:05:50;100623.63;;;17.01;100.00
69751;BME280;57335;52.288;6.056;2023-07-31T07:08:17;100627.66;;;17.09;100.00
69751;BME280;57335;52.288;6.056;2023-07-31T07:10:43;100618.41;;;17.11;100.00
69751;BME280;57335;52.288;6.056;2023-07-31T07:13:09;100608.88;;;17.15;100.00
69751;BME280;57335;52.288;6.056;2023-07-31T07:15:36;100602.56;;;17.22;100.00
69751;BME280;57335;52.288;6.056;2023-07-31T07:18:02;100611.34;;;17.27;100.00
69751;BME280;57335;52.288;6.056;2023-07-31T07:20:29;100595.75;;;17.31;100.00
69751;BME280;57335;52.288;6.056;2023-07-31T07:22:55;100606.38;;;17.36;100.00
69751;BME280;57335;52.288;6.056;2023-07-31T07:25:21;100605.84;;;17.39;100.00
69751;BME280;57335;52.288;6.056;2023-07-31T07:27:48;100603.47;;;17.38;100.00
69751;BME280;57335;52.288;6.056;2023-07-31T07:30:14;100604.53;;;17.42;100.00
69751;BME280;57335;52.288;6.056;2023-07-31T07:32:41;100594.47;;;17.44;100.00
69751;BME280;57335;52.288;6.056;2023-07-31T07:35:07;100600.09;;;17.52;100.00
69751;BME280;57335;52.288;6.056;2023-07-31T07:37:34;100602.50;;;17.59;100.00
69751;BME280;57335;52.288;6.056;2023-07-31T07:40:00;100595.09;;;17.61;100.00
69751;BME280;57335;52.288;6.056;2023-07-31T07:42:27;100598.56;;;17.72;100.00
69751;BME280;57335;52.288;6.056;2023-07-31T07:44:53;100586.94;;;17.73;100.00
69751;BME280;57335;52.288;6.056;2023-07-31T07:47:19;100589.88;;;17.77;100.00
69751;BME280;57335;52.288;6.056;2023-07-31T07:49:46;100596.78;;;17.83;100.00
69751;BME280;57335;52.288;6.056;2023-07-31T07:52:18;100589.38;;;17.85;100.00
69751;BME280;57335;52.288;6.056;2023-07-31T07:54:44;100597.59;;;17.83;100.00
69751;BME280;57335;52.288;6.056;2023-07-31T07:57:11;100594.13;;;17.83;100.00
69751;BME280;57335;52.288;6.056;2023-07-31T07:59:37;100580.03;;;17.72;100.00
69751;BME280;57335;52.288;6.056;2023-07-31T08:02:04;100590.13;;;17.75;100.00
69751;BME280;57335;52.288;6.056;2023-07-31T08:04:30;100586.94;;;17.73;100.00
69751;BME280;57335;52.288;6.056;2023-07-31T08:06:56;100579.22;;;17.71;100.00
69751;BME280;57335;52.288;6.056;2023-07-31T08:09:23;100580.84;;;17.72;100.00
69751;BME280;57335;52.288;6.056;2023-07-31T08:11:49;100565.97;;;17.71;100.00
69751;BME280;57335;52.288;6.056;2023-07-31T08:14:16;100569.44;;;17.77;100.00
69751;BME280;57335;52.288;6.056;2023-07-31T08:16:42;100572.88;;;17.78;100.00
69751;BME280;57335;52.288;6.056;2023-07-31T08:19:09;100567.06;;;17.75;100.00
69751;BME280;57335;52.288;6.056;2023-07-31T08:21:35;100571.31;;;17.82;100.00
69751;BME280;57335;52.288;6.056;2023-07-31T08:24:02;100554.63;;;17.81;100.00
69751;BME280;57335;52.288;6.056;2023-07-31T08:26:28;100567.13;;;17.91;100.00
69751;BME280;57335;52.288;6.056;2023-07-31T08:28:55;100559.72;;;17.93;100.00
69751;BME280;57335;52.288;6.056;2023-07-31T08:31:21;100562.94;;;18.00;100.00
69751;BME280;57335;52.288;6.056;2023-07-31T08:33:47;100548.31;;;17.92;100.00
69751;BME280;57335;52.288;6.056;2023-07-31T08:36:14;100560.53;;;18.04;100.00
69751;BME280;57335;52.288;6.056;2023-07-31T08:38:40;100549.91;;;18.04;100.00
69751;BME280;57335;52.288;6.056;2023-07-31T08:41:07;100555.00;;;18.10;100.00
69751;BME280;57335;52.288;6.056;2023-07-31T08:43:36;100550.72;;;18.09;100.00
69751;BME280;57335;52.288;6.056;2023-07-31T08:46:03;100542.25;;;18.12;100.00
69751;BME280;57335;52.288;6.056;2023-07-31T08:48:31;100548.91;;;18.20;100.00
69751;BME280;57335;52.288;6.056;2023-07-31T08:50:58;100550.75;;;18.20;100.00
69751;BME280;57335;52.288;6.056;2023-07-31T08:53:24;100547.81;;;18.21;100.00
69751;BME280;57335;52.288;6.056;2023-07-31T08:55:52;100552.59;;;18.19;100.00
69751;BME280;57335;52.288;6.056;2023-07-31T08:58:19;100552.88;;;18.23;100.00
69751;BME280;57335;52.288;6.056;2023-07-31T09:00:46;100539.09;;;18.21;100.00
69751;BME280;57335;52.288;6.056;2023-07-31T09:03:15;100547.56;;;18.23;100.00
69751;BME280;57335;52.288;6.056;2023-07-31T09:05:43;100558.44;;;18.31;100.00
69751;BME280;57335;52.288;6.056;2023-07-31T09:08:11;100552.09;;;18.32;100.00
69751;BME280;57335;52.288;6.056;2023-07-31T09:10:42;100556.59;;;18.37;100.00
69751;BME280;57335;52.288;6.056;2023-07-31T09:13:09;100552.88;;;18.33;100.00
69751;BME280;57335;52.288;6.056;2023-07-31T09:15:39;100552.09;;;18.32;100.00
69751;BME280;57335;52.288;6.056;2023-07-31T09:18:07;100552.06;;;18.38;100.00
69751;BME280;57335;52.288;6.056;2023-07-31T09:20:34;100551.81;;;18.39;100.00
69751;BME280;57335;52.288;6.056;2023-07-31T09:23:09;100551.84;;;18.44;100.00
69751;BME280;57335;52.288;6.056;2023-07-31T09:25:36;100543.88;;;18.44;100.00
69751;BME280;57335;52.288;6.056;2023-07-31T09:28:07;100547.31;;;18.50;100.00
69751;BME280;57335;52.288;6.056;2023-07-31T09:33:10;100543.31;;;18.68;100.00
69751;BME280;57335;52.288;6.056;2023-07-31T09:35:37;100531.13;;;18.67;100.00
69751;BME280;57335;52.288;6.056;2023-07-31T09:38:06;100541.44;;;18.73;100.00
69751;BME280;57335;52.288;6.056;2023-07-31T09:40:34;100531.34;;;18.76;100.00
69751;BME280;57335;52.288;6.056;2023-07-31T09:43:03;100527.38;;;18.78;100.00
69751;BME280;57335;52.288;6.056;2023-07-31T09:45:34;100532.19;;;18.86;100.00
69751;BME280;57335;52.288;6.056;2023-07-31T09:48:16;100531.34;;;18.96;100.00
69751;BME280;57335;52.288;6.056;2023-07-31T09:50:45;100516.75;;;18.99;100.00
69751;BME280;57335;52.288;6.056;2023-07-31T09:53:12;100525.19;;;19.16;100.00
69751;BME280;57335;52.288;6.056;2023-07-31T09:55:40;100512.94;;;19.20;100.00
69751;BME280;57335;52.288;6.056;2023-07-31T09:58:08;100523.25;;;19.32;100.00
69751;BME280;57335;52.288;6.056;2023-07-31T10:00:35;100522.69;;;19.40;100.00
69751;BME280;57335;52.288;6.056;2023-07-31T10:03:05;100520.81;;;19.46;100.00
69751;BME280;57335;52.288;6.056;2023-07-31T10:05:57;100517.09;;;19.47;100.00
69751;BME280;57335;52.288;6.056;2023-07-31T10:08:27;100519.50;;;19.48;100.00
69751;BME280;57335;52.288;6.056;2023-07-31T10:10:54;100510.19;;;19.46;100.00
69751;BME280;57335;52.288;6.056;2023-07-31T10:13:20;100513.09;;;19.49;100.00
69751;BME280;57335;52.288;6.056;2023-07-31T10:15:46;100518.41;;;19.55;100.00
69751;BME280;57335;52.288;6.056;2023-07-31T10:18:13;100510.97;;;19.51;100.00
69751;BME280;57335;52.288;6.056;2023-07-31T10:20:41;100514.41;;;19.52;100.00
69751;BME280;57335;52.288;6.056;2023-07-31T10:23:08;100527.16;;;19.55;100.00
69751;BME280;57335;52.288;6.056;2023-07-31T10:25:35;100517.59;;;19.54;100.00
69751;BME280;57335;52.288;6.056;2023-07-31T10:28:02;100520.75;;;19.56;100.00
69751;BME280;57335;52.288;6.056;2023-07-31T10:30:30;100518.94;;;19.51;100.00
69751;BME280;57335;52.288;6.056;2023-07-31T10:32:57;100518.41;;;19.55;100.00
69751;BME280;57335;52.288;6.056;2023-07-31T10:35:24;100508.84;;;19.48;100.00
69751;BME280;57335;52.288;6.056;2023-07-31T10:37:51;100513.63;;;19.51;100.00
69751;BME280;57335;52.288;6.056;2023-07-31T10:40:20;100505.91;;;19.50;100.00
69751;BME280;57335;52.288;6.056;2023-07-31T10:42:51;100511.22;;;19.55;100.00
69751;BME280;57335;52.288;6.056;2023-07-31T10:45:27;100502.16;;;19.56;100.00
69751;BME280;57335;52.288;6.056;2023-07-31T10:48:04;100518.34;;;19.65;100.00
69751;BME280;57335;52.288;6.056;2023-07-31T10:50:32;100507.19;;;19.63;100.00
69751;BME280;57335;52.288;6.056;2023-07-31T10:53:02;100509.28;;;19.66;100.00
69751;BME280;57335;52.288;6.056;2023-07-31T10:57:58;100517.00;;;19.72;100.00
69751;BME280;57335;52.288;6.056;2023-07-31T11:00:31;100501.31;;;19.71;100.00
69751;BME280;57335;52.288;6.056;2023-07-31T11:03:05;100510.84;;;19.77;100.00
69751;BME280;57335;52.288;6.056;2023-07-31T11:05:46;100527.06;;;19.81;100.00
69751;BME280;57335;52.288;6.056;2023-07-31T11:08:17;100515.31;;;19.87;100.00
69751;BME280;57335;52.288;6.056;2023-07-31T11:10:44;100510.25;;;19.85;100.00
69751;BME280;57335;52.288;6.056;2023-07-31T11:13:11;100497.28;;;19.79;100.00
69751;BME280;57335;52.288;6.056;2023-07-31T11:15:38;100495.88;;;19.86;100.00
69751;BME280;57335;52.288;6.056;2023-07-31T11:18:05;100502.56;;;19.84;100.00
69751;BME280;57335;52.288;6.056;2023-07-31T11:20:33;100500.41;;;19.91;100.00
69751;BME280;57335;52.288;6.056;2023-07-31T11:23:01;100508.66;;;19.89;100.00
69751;BME280;57335;52.288;6.056;2023-07-31T11:25:31;100501.44;;;19.95;100.00
69751;BME280;57335;52.288;6.056;2023-07-31T11:30:35;100505.38;;;20.03;100.00
69751;BME280;57335;52.288;6.056;2023-07-31T11:33:03;100504.53;;;20.07;100.00
69751;BME280;57335;52.288;6.056;2023-07-31T11:35:31;100496.03;;;20.05;100.00
69751;BME280;57335;52.288;6.056;2023-07-31T11:37:57;100498.13;;;20.08;100.00
69751;BME280;57335;52.288;6.056;2023-07-31T11:40:24;100508.75;;;20.08;100.00
69751;BME280;57335;52.288;6.056;2023-07-31T11:42:58;100507.97;;;20.08;100.00
69751;BME280;57335;52.288;6.056;2023-07-31T11:45:26;100497.09;;;20.04;100.00
69751;BME280;57335;52.288;6.056;2023-07-31T11:47:54;100501.09;;;20.07;100.00
69751;BME280;57335;52.288;6.056;2023-07-31T11:50:20;100504.72;;;20.16;100.00
69751;BME280;57335;52.288;6.056;2023-07-31T11:52:48;100506.06;;;20.19;100.00
69751;BME280;57335;52.288;6.056;2023-07-31T11:55:18;100498.34;;;20.17;100.00
69751;BME280;57335;52.288;6.056;2023-07-31T11:57:45;100494.91;;;20.11;100.00
69751;BME280;57335;52.288;6.056;2023-07-31T12:00:13;100492.53;;;20.10;100.00
69751;BME280;57335;52.288;6.056;2023-07-31T12:02:40;100503.38;;;20.19;100.00
69751;BME280;57335;52.288;6.056;2023-07-31T12:05:13;100506.00;;;20.24;100.00
69751;BME280;57335;52.288;6.056;2023-07-31T12:07:50;100496.66;;;20.26;100.00
69751;BME280;57335;52.288;6.056;2023-07-31T12:10:30;100495.84;;;20.31;100.00
69751;BME280;57335;52.288;6.056;2023-07-31T12:13:03;100491.56;;;20.30;100.00
69751;BME280;57335;52.288;6.056;2023-07-31T12:15:37;100504.59;;;20.31;100.00
69751;BME280;57335;52.288;6.056;2023-07-31T12:18:05;100506.75;;;20.29;100.00
69751;BME280;57335;52.288;6.056;2023-07-31T12:20:32;100511.81;;;20.26;100.00
69751;BME280;57335;52.288;6.056;2023-07-31T12:22:58;100496.44;;;20.23;100.00
69751;BME280;57335;52.288;6.056;2023-07-31T12:25:34;100498.59;;;20.21;100.00
69751;BME280;57335;52.288;6.056;2023-07-31T12:28:04;100503.38;;;20.19;100.00
69751;BME280;57335;52.288;6.056;2023-07-31T12:30:34;100495.19;;;20.10;100.00
69751;BME280;57335;52.288;6.056;2023-07-31T12:33:13;100505.03;;;20.09;100.00
69751;BME280;57335;52.288;6.056;2023-07-31T12:35:46;100493.69;;;19.99;100.00
69751;BME280;57335;52.288;6.056;2023-07-31T12:38:13;100500.84;;;19.98;100.00
69751;BME280;57335;52.288;6.056;2023-07-31T12:40:41;100500.13;;;19.92;100.00
69751;BME280;57335;52.288;6.056;2023-07-31T12:43:08;100489.78;;;19.86;100.00
69751;BME280;57335;52.288;6.056;2023-07-31T12:45:34;100495.06;;;19.91;100.00
69751;BME280;57335;52.288;6.056;2023-07-31T12:48:01;100484.72;;;19.89;100.00
69751;BME280;57335;52.288;6.056;2023-07-31T12:50:28;100472.75;;;19.87;100.00
69751;BME280;57335;52.288;6.056;2023-07-31T12:52:54;100471.66;;;19.93;100.00
69751;BME280;57335;52.288;6.056;2023-07-31T12:55:21;100455.94;;;19.97;100.00
69751;BME280;57335;52.288;6.056;2023-07-31T12:57:48;100464.56;;;20.12;100.00
69751;BME280;57335;52.288;6.056;2023-07-31T13:00:15;100450.44;;;20.17;100.00